Alexandria, Virginia
Current Conditions -  °F | °C
As of 12:52 PM on Friday 24 Oct 2014 (Local Time) from KDCA Reporting Station
Overcast Overcast  
Wind Chill: 65°   Ceiling: 25000
Heat Index: 65°   Visibility: 10mi
Dew Point: 41°   Wind: 16mph
Humidity: 42%   Direction: 330°NNW
Pressure: 29.95"   Gusts: 26mph
Location:  38.8°N, 77.04°W
Report Text: KDCA 241652Z 33014G23KT 10SM OVC250 18/05 A2995 RMK AO2 SLP140 T01830050
Loading
Personal Weather Stations






























Interactive Weather Map
Tropical Storm Tracking
New forecast layout! Learn more

10-Day Weather Forecast

Advertisements
Track Severe Weather on mobile